sensor_id;sensor_type;location;lat;lon;timestamp;P1;durP1;ratioP1;P2;durP2;ratioP2
64560;SDS011;50960;46.838;16.838;2024-01-16T00:02:11;24.05;;;21.20;;
64560;SDS011;50960;46.838;16.838;2024-01-16T00:04:37;24.95;;;21.08;;
64560;SDS011;50960;46.838;16.838;2024-01-16T00:07:05;23.33;;;20.67;;
64560;SDS011;50960;46.838;16.838;2024-01-16T00:09:34;23.02;;;20.42;;
64560;SDS011;50960;46.838;16.838;2024-01-16T00:12:04;25.55;;;21.70;;
64560;SDS011;50960;46.838;16.838;2024-01-16T00:14:34;23.95;;;21.38;;
64560;SDS011;50960;46.838;16.838;2024-01-16T00:17:02;23.27;;;20.48;;
64560;SDS011;50960;46.838;16.838;2024-01-16T00:19:28;23.77;;;21.20;;
64560;SDS011;50960;46.838;16.838;2024-01-16T00:21:55;24.77;;;22.08;;
64560;SDS011;50960;46.838;16.838;2024-01-16T00:24:21;24.17;;;20.70;;
64560;SDS011;50960;46.838;16.838;2024-01-16T00:26:47;25.02;;;21.13;;
64560;SDS011;50960;46.838;16.838;2024-01-16T00:29:15;23.15;;;20.23;;
64560;SDS011;50960;46.838;16.838;2024-01-16T00:31:42;22.73;;;20.33;;
64560;SDS011;50960;46.838;16.838;2024-01-16T00:34:08;22.50;;;19.52;;
64560;SDS011;50960;46.838;16.838;2024-01-16T00:36:34;21.45;;;19.15;;
64560;SDS011;50960;46.838;16.838;2024-01-16T00:39:01;21.60;;;18.65;;
64560;SDS011;50960;46.838;16.838;2024-01-16T00:41:28;23.15;;;18.58;;
64560;SDS011;50960;46.838;16.838;2024-01-16T00:43:55;21.20;;;18.58;;
64560;SDS011;50960;46.838;16.838;2024-01-16T00:46:21;21.00;;;17.75;;
64560;SDS011;50960;46.838;16.838;2024-01-16T00:48:47;23.83;;;21.02;;
64560;SDS011;50960;46.838;16.838;2024-01-16T00:51:14;22.00;;;19.35;;
64560;SDS011;50960;46.838;16.838;2024-01-16T00:53:40;22.60;;;20.08;;
64560;SDS011;50960;46.838;16.838;2024-01-16T00:56:07;20.67;;;17.98;;
64560;SDS011;50960;46.838;16.838;2024-01-16T00:58:33;19.52;;;16.88;;
64560;SDS011;50960;46.838;16.838;2024-01-16T01:00:59;20.27;;;18.08;;
64560;SDS011;50960;46.838;16.838;2024-01-16T01:03:26;21.63;;;19.15;;
64560;SDS011;50960;46.838;16.838;2024-01-16T01:05:52;22.40;;;19.77;;
64560;SDS011;50960;46.838;16.838;2024-01-16T01:08:18;20.35;;;18.15;;
64560;SDS011;50960;46.838;16.838;2024-01-16T01:10:44;22.15;;;19.65;;
64560;SDS011;50960;46.838;16.838;2024-01-16T01:13:11;22.10;;;19.73;;
64560;SDS011;50960;46.838;16.838;2024-01-16T01:15:37;21.60;;;18.58;;
64560;SDS011;50960;46.838;16.838;2024-01-16T01:18:03;22.30;;;19.90;;
64560;SDS011;50960;46.838;16.838;2024-01-16T01:20:29;22.75;;;19.50;;
64560;SDS011;50960;46.838;16.838;2024-01-16T01:22:56;22.67;;;18.80;;
64560;SDS011;50960;46.838;16.838;2024-01-16T01:25:22;22.70;;;20.02;;
64560;SDS011;50960;46.838;16.838;2024-01-16T01:27:48;22.17;;;19.13;;
64560;SDS011;50960;46.838;16.838;2024-01-16T01:30:15;23.55;;;19.70;;
64560;SDS011;50960;46.838;16.838;2024-01-16T01:32:41;22.40;;;19.92;;
64560;SDS011;50960;46.838;16.838;2024-01-16T01:35:09;22.42;;;18.92;;
64560;SDS011;50960;46.838;16.838;2024-01-16T01:37:37;21.67;;;19.35;;
64560;SDS011;50960;46.838;16.838;2024-01-16T01:40:04;23.45;;;19.92;;
64560;SDS011;50960;46.838;16.838;2024-01-16T01:42:30;19.38;;;17.33;;
64560;SDS011;50960;46.838;16.838;2024-01-16T01:44:57;19.25;;;17.13;;
64560;SDS011;50960;46.838;16.838;2024-01-16T01:47:23;19.48;;;17.17;;
64560;SDS011;50960;46.838;16.838;2024-01-16T01:49:50;20.98;;;16.42;;
64560;SDS011;50960;46.838;16.838;2024-01-16T01:52:17;20.33;;;17.10;;
64560;SDS011;50960;46.838;16.838;2024-01-16T01:54:44;20.15;;;17.70;;
64560;SDS011;50960;46.838;16.838;2024-01-16T01:57:11;20.05;;;17.95;;
64560;SDS011;50960;46.838;16.838;2024-01-16T01:59:37;21.33;;;18.23;;
64560;SDS011;50960;46.838;16.838;2024-01-16T02:02:03;21.92;;;18.90;;
64560;SDS011;50960;46.838;16.838;2024-01-16T02:04:31;19.80;;;17.73;;
64560;SDS011;50960;46.838;16.838;2024-01-16T02:06:57;19.00;;;17.10;;
64560;SDS011;50960;46.838;16.838;2024-01-16T02:09:24;19.85;;;17.75;;
64560;SDS011;50960;46.838;16.838;2024-01-16T02:11:50;20.88;;;18.05;;
64560;SDS011;50960;46.838;16.838;2024-01-16T02:14:17;20.05;;;17.83;;
64560;SDS011;50960;46.838;16.838;2024-01-16T02:16:43;20.58;;;17.17;;
64560;SDS011;50960;46.838;16.838;2024-01-16T02:19:10;20.35;;;17.73;;
64560;SDS011;50960;46.838;16.838;2024-01-16T02:21:38;20.35;;;18.00;;
64560;SDS011;50960;46.838;16.838;2024-01-16T02:24:07;20.40;;;17.25;;
64560;SDS011;50960;46.838;16.838;2024-01-16T02:26:35;20.95;;;18.20;;
64560;SDS011;50960;46.838;16.838;2024-01-16T02:29:02;20.65;;;18.23;;
64560;SDS011;50960;46.838;16.838;2024-01-16T02:31:31;20.13;;;17.92;;
64560;SDS011;50960;46.838;16.838;2024-01-16T02:33:58;19.80;;;17.55;;
64560;SDS011;50960;46.838;16.838;2024-01-16T02:36:25;19.75;;;17.65;;
64560;SDS011;50960;46.838;16.838;2024-01-16T02:38:52;19.00;;;16.92;;
64560;SDS011;50960;46.838;16.838;2024-01-16T02:41:19;17.80;;;15.88;;
64560;SDS011;50960;46.838;16.838;2024-01-16T02:43:46;19.00;;;16.15;;
64560;SDS011;50960;46.838;16.838;2024-01-16T02:46:15;18.73;;;16.73;;
64560;SDS011;50960;46.838;16.838;2024-01-16T02:48:42;18.02;;;16.08;;
64560;SDS011;50960;46.838;16.838;2024-01-16T02:51:08;21.13;;;18.48;;
64560;SDS011;50960;46.838;16.838;2024-01-16T02:53:35;20.17;;;17.30;;
64560;SDS011;50960;46.838;16.838;2024-01-16T02:56:01;18.73;;;16.30;;
64560;SDS011;50960;46.838;16.838;2024-01-16T02:58:28;18.52;;;16.45;;
64560;SDS011;50960;46.838;16.838;2024-01-16T03:00:56;18.08;;;15.38;;
64560;SDS011;50960;46.838;16.838;2024-01-16T03:03:22;18.70;;;16.67;;
64560;SDS011;50960;46.838;16.838;2024-01-16T03:05:52;19.30;;;17.30;;
64560;SDS011;50960;46.838;16.838;2024-01-16T03:08:18;18.20;;;15.48;;
64560;SDS011;50960;46.838;16.838;2024-01-16T03:10:44;18.83;;;16.83;;
64560;SDS011;50960;46.838;16.838;2024-01-16T03:13:11;18.45;;;16.55;;
64560;SDS011;50960;46.838;16.838;2024-01-16T03:15:37;17.92;;;16.02;;
64560;SDS011;50960;46.838;16.838;2024-01-16T03:18:03;18.55;;;16.55;;
64560;SDS011;50960;46.838;16.838;2024-01-16T03:20:30;18.80;;;16.80;;
64560;SDS011;50960;46.838;16.838;2024-01-16T03:22:56;19.42;;;17.33;;
64560;SDS011;50960;46.838;16.838;2024-01-16T03:25:22;19.35;;;17.13;;
64560;SDS011;50960;46.838;16.838;2024-01-16T03:27:49;19.58;;;17.48;;
64560;SDS011;50960;46.838;16.838;2024-01-16T03:30:15;19.50;;;17.40;;
64560;SDS011;50960;46.838;16.838;2024-01-16T03:32:41;18.52;;;16.50;;
64560;SDS011;50960;46.838;16.838;2024-01-16T03:35:08;19.75;;;17.58;;
64560;SDS011;50960;46.838;16.838;2024-01-16T03:37:34;20.15;;;17.98;;
64560;SDS011;50960;46.838;16.838;2024-01-16T03:40:00;19.70;;;17.55;;
64560;SDS011;50960;46.838;16.838;2024-01-16T03:42:27;19.80;;;17.70;;
64560;SDS011;50960;46.838;16.838;2024-01-16T03:44:53;18.70;;;16.70;;
64560;SDS011;50960;46.838;16.838;2024-01-16T03:47:19;20.63;;;17.95;;
64560;SDS011;50960;46.838;16.838;2024-01-16T03:49:45;23.08;;;17.13;;
64560;SDS011;50960;46.838;16.838;2024-01-16T03:52:12;21.73;;;18.02;;
64560;SDS011;50960;46.838;16.838;2024-01-16T03:54:38;18.15;;;16.15;;
64560;SDS011;50960;46.838;16.838;2024-01-16T03:57:04;18.80;;;16.50;;
64560;SDS011;50960;46.838;16.838;2024-01-16T03:59:31;20.10;;;16.67;;
64560;SDS011;50960;46.838;16.838;2024-01-16T04:01:57;18.05;;;16.10;;
64560;SDS011;50960;46.838;16.838;2024-01-16T04:04:23;18.50;;;15.57;;
64560;SDS011;50960;46.838;16.838;2024-01-16T04:06:49;18.08;;;16.17;;
64560;SDS011;50960;46.838;16.838;2024-01-16T04:09:16;18.65;;;16.75;;
64560;SDS011;50960;46.838;16.838;2024-01-16T04:11:42;18.67;;;16.67;;
64560;SDS011;50960;46.838;16.838;2024-01-16T04:14:08;18.27;;;16.38;;
64560;SDS011;50960;46.838;16.838;2024-01-16T04:16:35;20.83;;;18.67;;
64560;SDS011;50960;46.838;16.838;2024-01-16T04:19:01;21.00;;;18.80;;
64560;SDS011;50960;46.838;16.838;2024-01-16T04:21:27;22.67;;;18.85;;
64560;SDS011;50960;46.838;16.838;2024-01-16T04:23:53;21.15;;;18.88;;
64560;SDS011;50960;46.838;16.838;2024-01-16T04:26:20;24.42;;;21.15;;
64560;SDS011;50960;46.838;16.838;2024-01-16T04:28:47;22.33;;;19.65;;
64560;SDS011;50960;46.838;16.838;2024-01-16T04:31:13;22.77;;;18.30;;
64560;SDS011;50960;46.838;16.838;2024-01-16T04:33:42;24.27;;;19.80;;
64560;SDS011;50960;46.838;16.838;2024-01-16T04:36:08;22.17;;;18.10;;
64560;SDS011;50960;46.838;16.838;2024-01-16T04:38:35;20.95;;;18.70;;
64560;SDS011;50960;46.838;16.838;2024-01-16T04:41:02;21.05;;;18.75;;
64560;SDS011;50960;46.838;16.838;2024-01-16T04:43:29;22.23;;;18.63;;
64560;SDS011;50960;46.838;16.838;2024-01-16T04:45:55;23.55;;;18.85;;
64560;SDS011;50960;46.838;16.838;2024-01-16T04:48:22;24.30;;;18.55;;
64560;SDS011;50960;46.838;16.838;2024-01-16T04:50:48;23.35;;;17.05;;
64560;SDS011;50960;46.838;16.838;2024-01-16T04:53:14;22.10;;;17.17;;
64560;SDS011;50960;46.838;16.838;2024-01-16T04:55:41;24.50;;;20.10;;
64560;SDS011;50960;46.838;16.838;2024-01-16T04:58:08;23.85;;;20.70;;
64560;SDS011;50960;46.838;16.838;2024-01-16T05:00:34;23.77;;;20.08;;
64560;SDS011;50960;46.838;16.838;2024-01-16T05:03:04;24.23;;;18.80;;
64560;SDS011;50960;46.838;16.838;2024-01-16T05:05:31;22.75;;;19.70;;
64560;SDS011;50960;46.838;16.838;2024-01-16T05:08:00;21.88;;;19.35;;
64560;SDS011;50960;46.838;16.838;2024-01-16T05:10:27;21.92;;;18.75;;
64560;SDS011;50960;46.838;16.838;2024-01-16T05:12:54;22.95;;;20.40;;
64560;SDS011;50960;46.838;16.838;2024-01-16T05:15:20;24.20;;;21.42;;
64560;SDS011;50960;46.838;16.838;2024-01-16T05:17:47;25.30;;;21.00;;
64560;SDS011;50960;46.838;16.838;2024-01-16T05:20:14;24.73;;;22.05;;
64560;SDS011;50960;46.838;16.838;2024-01-16T05:22:40;25.27;;;21.90;;
64560;SDS011;50960;46.838;16.838;2024-01-16T05:25:07;25.48;;;22.67;;
64560;SDS011;50960;46.838;16.838;2024-01-16T05:27:34;25.42;;;21.77;;
64560;SDS011;50960;46.838;16.838;2024-01-16T05:30:00;25.55;;;22.60;;
64560;SDS011;50960;46.838;16.838;2024-01-16T05:32:28;25.27;;;22.55;;
64560;SDS011;50960;46.838;16.838;2024-01-16T05:34:54;24.70;;;22.00;;
64560;SDS011;50960;46.838;16.838;2024-01-16T05:37:21;24.45;;;21.83;;
64560;SDS011;50960;46.838;16.838;2024-01-16T05:39:47;29.23;;;26.13;;
64560;SDS011;50960;46.838;16.838;2024-01-16T05:42:14;29.55;;;26.38;;
64560;SDS011;50960;46.838;16.838;2024-01-16T05:44:41;27.02;;;24.17;;
64560;SDS011;50960;46.838;16.838;2024-01-16T05:47:07;26.33;;;23.52;;
64560;SDS011;50960;46.838;16.838;2024-01-16T05:49:33;26.55;;;23.75;;
64560;SDS011;50960;46.838;16.838;2024-01-16T05:52:00;27.40;;;23.73;;
64560;SDS011;50960;46.838;16.838;2024-01-16T05:54:27;23.42;;;20.92;;
64560;SDS011;50960;46.838;16.838;2024-01-16T05:56:53;25.30;;;21.60;;
64560;SDS011;50960;46.838;16.838;2024-01-16T05:59:19;23.92;;;21.23;;
64560;SDS011;50960;46.838;16.838;2024-01-16T06:01:46;24.75;;;22.13;;
64560;SDS011;50960;46.838;16.838;2024-01-16T06:04:12;22.50;;;19.45;;
64560;SDS011;50960;46.838;16.838;2024-01-16T06:06:39;23.63;;;21.10;;
64560;SDS011;50960;46.838;16.838;2024-01-16T06:09:09;24.40;;;21.80;;
64560;SDS011;50960;46.838;16.838;2024-01-16T06:11:39;24.45;;;21.08;;
64560;SDS011;50960;46.838;16.838;2024-01-16T06:14:14;22.27;;;20.05;;
64560;SDS011;50960;46.838;16.838;2024-01-16T06:16:47;23.65;;;20.17;;
64560;SDS011;50960;46.838;16.838;2024-01-16T06:19:15;21.80;;;19.48;;
64560;SDS011;50960;46.838;16.838;2024-01-16T06:21:42;22.85;;;19.33;;
64560;SDS011;50960;46.838;16.838;2024-01-16T06:24:08;23.02;;;20.55;;
64560;SDS011;50960;46.838;16.838;2024-01-16T06:26:37;23.75;;;21.23;;
64560;SDS011;50960;46.838;16.838;2024-01-16T06:29:04;22.15;;;19.77;;
64560;SDS011;50960;46.838;16.838;2024-01-16T06:31:33;22.65;;;20.27;;
64560;SDS011;50960;46.838;16.838;2024-01-16T06:33:59;25.05;;;22.35;;
64560;SDS011;50960;46.838;16.838;2024-01-16T06:36:27;25.52;;;22.70;;
64560;SDS011;50960;46.838;16.838;2024-01-16T06:38:54;28.58;;;25.92;;
64560;SDS011;50960;46.838;16.838;2024-01-16T06:41:21;23.65;;;21.10;;
64560;SDS011;50960;46.838;16.838;2024-01-16T06:43:49;23.27;;;20.88;;
64560;SDS011;50960;46.838;16.838;2024-01-16T06:46:15;24.42;;;21.85;;
64560;SDS011;50960;46.838;16.838;2024-01-16T06:48:42;25.05;;;22.45;;
64560;SDS011;50960;46.838;16.838;2024-01-16T06:51:09;23.42;;;20.90;;
64560;SDS011;50960;46.838;16.838;2024-01-16T06:53:39;23.85;;;21.30;;
64560;SDS011;50960;46.838;16.838;2024-01-16T06:56:06;24.23;;;21.67;;
64560;SDS011;50960;46.838;16.838;2024-01-16T06:58:33;22.77;;;20.38;;
64560;SDS011;50960;46.838;16.838;2024-01-16T07:01:01;24.13;;;21.63;;
64560;SDS011;50960;46.838;16.838;2024-01-16T07:03:28;24.48;;;21.80;;
64560;SDS011;50960;46.838;16.838;2024-01-16T07:05:54;24.70;;;22.20;;
64560;SDS011;50960;46.838;16.838;2024-01-16T07:08:21;24.08;;;21.58;;
64560;SDS011;50960;46.838;16.838;2024-01-16T07:10:47;22.10;;;19.80;;
64560;SDS011;50960;46.838;16.838;2024-01-16T07:13:14;22.95;;;20.52;;
64560;SDS011;50960;46.838;16.838;2024-01-16T07:15:40;23.70;;;20.50;;
64560;SDS011;50960;46.838;16.838;2024-01-16T07:18:07;20.80;;;18.60;;
64560;SDS011;50960;46.838;16.838;2024-01-16T07:20:34;22.90;;;20.50;;
64560;SDS011;50960;46.838;16.838;2024-01-16T07:23:00;22.38;;;20.05;;
64560;SDS011;50960;46.838;16.838;2024-01-16T07:25:28;20.60;;;18.50;;
64560;SDS011;50960;46.838;16.838;2024-01-16T07:27:54;23.38;;;20.30;;
64560;SDS011;50960;46.838;16.838;2024-01-16T07:30:21;22.20;;;19.75;;
64560;SDS011;50960;46.838;16.838;2024-01-16T07:32:48;22.90;;;19.73;;
64560;SDS011;50960;46.838;16.838;2024-01-16T07:35:16;22.65;;;20.27;;
64560;SDS011;50960;46.838;16.838;2024-01-16T07:37:43;20.20;;;18.00;;
64560;SDS011;50960;46.838;16.838;2024-01-16T07:40:11;19.38;;;17.17;;
64560;SDS011;50960;46.838;16.838;2024-01-16T07:42:37;20.13;;;17.95;;
64560;SDS011;50960;46.838;16.838;2024-01-16T07:45:04;20.80;;;18.35;;
64560;SDS011;50960;46.838;16.838;2024-01-16T07:47:31;22.45;;;20.15;;
64560;SDS011;50960;46.838;16.838;2024-01-16T07:49:58;21.27;;;18.95;;
64560;SDS011;50960;46.838;16.838;2024-01-16T07:52:27;20.27;;;18.05;;
64560;SDS011;50960;46.838;16.838;2024-01-16T07:54:54;20.35;;;18.08;;
64560;SDS011;50960;46.838;16.838;2024-01-16T07:57:21;19.88;;;17.77;;
64560;SDS011;50960;46.838;16.838;2024-01-16T07:59:47;22.67;;;20.38;;
64560;SDS011;50960;46.838;16.838;2024-01-16T08:02:14;22.67;;;20.27;;
64560;SDS011;50960;46.838;16.838;2024-01-16T08:04:40;22.38;;;19.73;;
64560;SDS011;50960;46.838;16.838;2024-01-16T08:07:07;21.63;;;19.33;;
64560;SDS011;50960;46.838;16.838;2024-01-16T08:09:34;24.45;;;21.70;;
64560;SDS011;50960;46.838;16.838;2024-01-16T08:12:00;24.20;;;21.60;;
64560;SDS011;50960;46.838;16.838;2024-01-16T08:14:28;23.90;;;21.33;;
64560;SDS011;50960;46.838;16.838;2024-01-16T08:16:54;23.50;;;21.02;;
64560;SDS011;50960;46.838;16.838;2024-01-16T08:19:21;25.33;;;22.63;;
64560;SDS011;50960;46.838;16.838;2024-01-16T08:21:48;28.10;;;25.00;;
64560;SDS011;50960;46.838;16.838;2024-01-16T08:24:14;24.92;;;21.98;;
64560;SDS011;50960;46.838;16.838;2024-01-16T08:26:41;26.20;;;23.27;;
64560;SDS011;50960;46.838;16.838;2024-01-16T08:29:07;28.30;;;25.20;;
64560;SDS011;50960;46.838;16.838;2024-01-16T08:31:34;28.65;;;25.10;;
64560;SDS011;50960;46.838;16.838;2024-01-16T08:34:00;30.10;;;26.27;;
64560;SDS011;50960;46.838;16.838;2024-01-16T08:36:27;27.00;;;23.73;;
64560;SDS011;50960;46.838;16.838;2024-01-16T08:38:54;28.88;;;24.42;;
64560;SDS011;50960;46.838;16.838;2024-01-16T08:41:20;26.20;;;22.90;;
64560;SDS011;50960;46.838;16.838;2024-01-16T08:43:47;26.52;;;23.60;;
64560;SDS011;50960;46.838;16.838;2024-01-16T08:46:14;26.55;;;23.38;;
64560;SDS011;50960;46.838;16.838;2024-01-16T08:48:40;27.65;;;24.55;;
64560;SDS011;50960;46.838;16.838;2024-01-16T08:51:07;29.02;;;25.27;;
64560;SDS011;50960;46.838;16.838;2024-01-16T08:53:35;23.13;;;20.73;;
64560;SDS011;50960;46.838;16.838;2024-01-16T08:56:01;22.58;;;20.17;;
64560;SDS011;50960;46.838;16.838;2024-01-16T08:58:28;22.00;;;18.05;;
64560;SDS011;50960;46.838;16.838;2024-01-16T09:00:54;21.75;;;19.20;;
64560;SDS011;50960;46.838;16.838;2024-01-16T09:03:21;21.95;;;19.65;;
64560;SDS011;50960;46.838;16.838;2024-01-16T09:05:47;22.13;;;19.38;;
64560;SDS011;50960;46.838;16.838;2024-01-16T09:08:14;23.05;;;19.63;;
64560;SDS011;50960;46.838;16.838;2024-01-16T09:10:41;21.42;;;19.13;;
64560;SDS011;50960;46.838;16.838;2024-01-16T09:13:07;20.25;;;18.20;;
64560;SDS011;50960;46.838;16.838;2024-01-16T09:15:34;21.95;;;19.65;;
64560;SDS011;50960;46.838;16.838;2024-01-16T09:18:00;18.83;;;16.67;;
64560;SDS011;50960;46.838;16.838;2024-01-16T09:20:27;21.20;;;18.92;;
64560;SDS011;50960;46.838;16.838;2024-01-16T09:22:53;22.05;;;19.65;;
64560;SDS011;50960;46.838;16.838;2024-01-16T09:25:20;21.80;;;19.45;;
64560;SDS011;50960;46.838;16.838;2024-01-16T09:27:49;23.35;;;20.38;;
64560;SDS011;50960;46.838;16.838;2024-01-16T09:30:16;24.30;;;21.08;;
64560;SDS011;50960;46.838;16.838;2024-01-16T09:32:42;22.05;;;19.65;;
64560;SDS011;50960;46.838;16.838;2024-01-16T09:35:09;24.70;;;21.92;;
64560;SDS011;50960;46.838;16.838;2024-01-16T09:37:36;23.27;;;20.88;;
64560;SDS011;50960;46.838;16.838;2024-01-16T09:40:05;22.88;;;20.38;;
64560;SDS011;50960;46.838;16.838;2024-01-16T09:42:32;21.13;;;18.92;;
64560;SDS011;50960;46.838;16.838;2024-01-16T09:45:02;20.63;;;18.42;;
64560;SDS011;50960;46.838;16.838;2024-01-16T09:47:31;21.67;;;19.48;;
64560;SDS011;50960;46.838;16.838;2024-01-16T09:50:07;20.85;;;18.30;;
64560;SDS011;50960;46.838;16.838;2024-01-16T09:52:33;19.30;;;17.30;;
64560;SDS011;50960;46.838;16.838;2024-01-16T09:55:00;22.40;;;18.27;;
64560;SDS011;50960;46.838;16.838;2024-01-16T09:57:27;20.05;;;18.02;;
64560;SDS011;50960;46.838;16.838;2024-01-16T09:59:55;19.17;;;17.17;;
64560;SDS011;50960;46.838;16.838;2024-01-16T10:02:22;21.67;;;19.40;;
64560;SDS011;50960;46.838;16.838;2024-01-16T10:04:49;20.35;;;18.25;;
64560;SDS011;50960;46.838;16.838;2024-01-16T10:07:17;20.00;;;17.00;;
64560;SDS011;50960;46.838;16.838;2024-01-16T10:09:45;18.02;;;16.23;;
64560;SDS011;50960;46.838;16.838;2024-01-16T10:12:11;18.88;;;16.88;;
64560;SDS011;50960;46.838;16.838;2024-01-16T10:14:39;17.83;;;15.93;;
64560;SDS011;50960;46.838;16.838;2024-01-16T10:17:06;18.50;;;15.65;;
64560;SDS011;50960;46.838;16.838;2024-01-16T10:19:49;16.17;;;14.52;;
64560;SDS011;50960;46.838;16.838;2024-01-16T10:22:24;14.35;;;12.95;;
64560;SDS011;50960;46.838;16.838;2024-01-16T10:27:40;13.75;;;12.35;;
64560;SDS011;50960;46.838;16.838;2024-01-16T10:30:07;14.07;;;12.77;;
64560;SDS011;50960;46.838;16.838;2024-01-16T10:32:34;12.77;;;11.57;;
64560;SDS011;50960;46.838;16.838;2024-01-16T10:35:01;13.27;;;11.98;;
64560;SDS011;50960;46.838;16.838;2024-01-16T10:37:30;12.80;;;11.48;;
64560;SDS011;50960;46.838;16.838;2024-01-16T10:39:57;11.18;;;10.07;;
64560;SDS011;50960;46.838;16.838;2024-01-16T10:42:24;11.70;;;10.43;;
64560;SDS011;50960;46.838;16.838;2024-01-16T10:44:53;11.40;;;10.30;;
64560;SDS011;50960;46.838;16.838;2024-01-16T10:47:21;12.10;;;10.98;;
64560;SDS011;50960;46.838;16.838;2024-01-16T10:49:48;12.70;;;11.40;;
64560;SDS011;50960;46.838;16.838;2024-01-16T10:52:15;12.93;;;11.63;;
64560;SDS011;50960;46.838;16.838;2024-01-16T10:54:43;13.25;;;12.00;;
64560;SDS011;50960;46.838;16.838;2024-01-16T10:57:15;11.85;;;10.70;;
64560;SDS011;50960;46.838;16.838;2024-01-16T10:59:47;12.00;;;10.80;;
64560;SDS011;50960;46.838;16.838;2024-01-16T11:02:14;11.13;;;10.02;;
64560;SDS011;50960;46.838;16.838;2024-01-16T11:04:42;10.75;;;9.00;;
64560;SDS011;50960;46.838;16.838;2024-01-16T11:07:09;10.23;;;9.32;;
64560;SDS011;50960;46.838;16.838;2024-01-16T11:09:36;11.02;;;10.02;;
64560;SDS011;50960;46.838;16.838;2024-01-16T11:12:03;10.90;;;9.85;;
64560;SDS011;50960;46.838;16.838;2024-01-16T11:14:30;10.63;;;9.40;;
64560;SDS011;50960;46.838;16.838;2024-01-16T11:16:57;9.70;;;8.77;;
64560;SDS011;50960;46.838;16.838;2024-01-16T11:19:26;10.80;;;9.70;;
64560;SDS011;50960;46.838;16.838;2024-01-16T11:21:53;11.02;;;9.93;;
64560;SDS011;50960;46.838;16.838;2024-01-16T11:24:20;11.05;;;10.05;;
64560;SDS011;50960;46.838;16.838;2024-01-16T11:26:47;10.95;;;9.93;;
64560;SDS011;50960;46.838;16.838;2024-01-16T11:31:55;10.23;;;9.23;;
64560;SDS011;50960;46.838;16.838;2024-01-16T11:35:23;9.35;;;8.45;;
64560;SDS011;50960;46.838;16.838;2024-01-16T11:37:27;9.07;;;8.18;;
64560;SDS011;50960;46.838;16.838;2024-01-16T11:42:39;8.18;;;7.47;;
64560;SDS011;50960;46.838;16.838;2024-01-16T11:45:14;8.15;;;7.35;;
64560;SDS011;50960;46.838;16.838;2024-01-16T11:48:07;8.63;;;7.82;;
64560;SDS011;50960;46.838;16.838;2024-01-16T11:50:35;7.93;;;7.13;;
64560;SDS011;50960;46.838;16.838;2024-01-16T11:53:01;7.15;;;6.47;;
64560;SDS011;50960;46.838;16.838;2024-01-16T11:55:30;7.40;;;6.70;;
64560;SDS011;50960;46.838;16.838;2024-01-16T12:00:23;7.28;;;6.57;;
64560;SDS011;50960;46.838;16.838;2024-01-16T12:02:55;7.15;;;6.50;;
64560;SDS011;50960;46.838;16.838;2024-01-16T12:05:22;7.60;;;6.90;;
64560;SDS011;50960;46.838;16.838;2024-01-16T12:07:50;7.53;;;6.72;;
64560;SDS011;50960;46.838;16.838;2024-01-16T12:10:17;8.30;;;7.45;;
64560;SDS011;50960;46.838;16.838;2024-01-16T12:12:44;8.00;;;6.97;;
64560;SDS011;50960;46.838;16.838;2024-01-16T12:15:14;8.02;;;7.32;;
64560;SDS011;50960;46.838;16.838;2024-01-16T12:17:58;8.75;;;7.85;;
64560;SDS011;50960;46.838;16.838;2024-01-16T12:20:29;7.32;;;6.63;;
64560;SDS011;50960;46.838;16.838;2024-01-16T12:22:57;7.10;;;6.40;;
64560;SDS011;50960;46.838;16.838;2024-01-16T12:25:24;7.63;;;6.93;;
64560;SDS011;50960;46.838;16.838;2024-01-16T12:27:57;7.30;;;6.60;;
64560;SDS011;50960;46.838;16.838;2024-01-16T12:30:29;8.18;;;6.95;;
64560;SDS011;50960;46.838;16.838;2024-01-16T12:33:09;7.30;;;6.60;;
64560;SDS011;50960;46.838;16.838;2024-01-16T12:35:36;7.28;;;6.57;;
64560;SDS011;50960;46.838;16.838;2024-01-16T12:38:07;8.20;;;7.40;;
64560;SDS011;50960;46.838;16.838;2024-01-16T12:40:50;9.90;;;8.90;;
64560;SDS011;50960;46.838;16.838;2024-01-16T12:43:17;9.15;;;8.25;;
64560;SDS011;50960;46.838;16.838;2024-01-16T12:45:44;10.77;;;9.77;;
64560;SDS011;50960;46.838;16.838;2024-01-16T12:48:11;10.60;;;9.60;;
64560;SDS011;50960;46.838;16.838;2024-01-16T12:50:37;10.45;;;9.45;;
64560;SDS011;50960;46.838;16.838;2024-01-16T12:53:05;10.85;;;9.52;;
64560;SDS011;50960;46.838;16.838;2024-01-16T12:55:40;10.55;;;9.55;;
64560;SDS011;50960;46.838;16.838;2024-01-16T13:00:40;11.98;;;10.73;;
64560;SDS011;50960;46.838;16.838;2024-01-16T13:03:06;12.00;;;10.75;;
64560;SDS011;50960;46.838;16.838;2024-01-16T13:05:34;10.40;;;9.40;;
64560;SDS011;50960;46.838;16.838;2024-01-16T13:08:04;10.07;;;9.10;;
64560;SDS011;50960;46.838;16.838;2024-01-16T13:10:31;11.60;;;10.40;;
64560;SDS011;50960;46.838;16.838;2024-01-16T13:13:14;11.27;;;10.20;;
64560;SDS011;50960;46.838;16.838;2024-01-16T13:15:41;11.00;;;9.95;;
64560;SDS011;50960;46.838;16.838;2024-01-16T13:18:18;11.27;;;10.18;;
64560;SDS011;50960;46.838;16.838;2024-01-16T13:20:46;11.70;;;10.60;;
64560;SDS011;50960;46.838;16.838;2024-01-16T13:23:12;10.40;;;9.50;;
64560;SDS011;50960;46.838;16.838;2024-01-16T13:25:41;11.07;;;9.98;;
64560;SDS011;50960;46.838;16.838;2024-01-16T13:28:08;10.48;;;9.48;;
64560;SDS011;50960;46.838;16.838;2024-01-16T13:30:35;10.57;;;9.57;;
64560;SDS011;50960;46.838;16.838;2024-01-16T13:33:02;11.43;;;10.15;;
64560;SDS011;50960;46.838;16.838;2024-01-16T13:35:30;11.48;;;10.38;;
64560;SDS011;50960;46.838;16.838;2024-01-16T13:37:56;11.15;;;10.15;;
64560;SDS011;50960;46.838;16.838;2024-01-16T13:40:23;11.07;;;9.98;;
64560;SDS011;50960;46.838;16.838;2024-01-16T13:42:50;11.48;;;10.43;;
64560;SDS011;50960;46.838;16.838;2024-01-16T13:45:16;11.52;;;10.43;;
64560;SDS011;50960;46.838;16.838;2024-01-16T13:47:44;11.40;;;10.30;;
64560;SDS011;50960;46.838;16.838;2024-01-16T13:50:10;13.95;;;12.52;;
64560;SDS011;50960;46.838;16.838;2024-01-16T13:52:37;13.57;;;12.05;;
64560;SDS011;50960;46.838;16.838;2024-01-16T13:55:07;17.02;;;13.98;;
64560;SDS011;50960;46.838;16.838;2024-01-16T13:57:34;13.55;;;12.15;;
64560;SDS011;50960;46.838;16.838;2024-01-16T14:00:08;14.32;;;12.82;;
64560;SDS011;50960;46.838;16.838;2024-01-16T14:02:41;12.68;;;11.48;;
64560;SDS011;50960;46.838;16.838;2024-01-16T14:05:08;13.38;;;12.07;;
64560;SDS011;50960;46.838;16.838;2024-01-16T14:07:44;12.80;;;11.60;;
64560;SDS011;50960;46.838;16.838;2024-01-16T14:10:14;12.27;;;11.18;;
64560;SDS011;50960;46.838;16.838;2024-01-16T14:12:44;12.45;;;11.25;;
64560;SDS011;50960;46.838;16.838;2024-01-16T14:15:11;12.52;;;11.23;;
64560;SDS011;50960;46.838;16.838;2024-01-16T14:17:42;13.30;;;11.95;;
64560;SDS011;50960;46.838;16.838;2024-01-16T14:20:12;13.57;;;12.27;;
64560;SDS011;50960;46.838;16.838;2024-01-16T14:22:39;13.25;;;11.98;;
64560;SDS011;50960;46.838;16.838;2024-01-16T14:25:08;12.20;;;11.10;;
64560;SDS011;50960;46.838;16.838;2024-01-16T14:27:41;11.00;;;10.00;;